Aviation Digital Data Service (ADDS)

Output produced by METARs form (1448 UTC 19 April 2019)
found at http://www.aviationweather.gov/metar/data/
 
Forecast for: TDPD (MELVILLE HALL AR, DM)
Text: TAF TDPD 191100Z 1912/2012 09008KT 9999 SCT020
Forecast period: 1200 UTC 19 April 2019 to 1200 UTC 20 April 2019
Forecast type: FROM: standard forecast or significant change
Winds: from the E (90 degrees) at 9 MPH (8 knots; 4.1 m/s)
Visibility: 6 or more miles 10+ km)
Ceiling: at least 12,000 feet AGL
Clouds: scattered clouds at 2000 feet AGL
Weather: no significant weather forecast for this period